FFL1031 KPNS-KAUO
Flight info
| Callsign | FFL1031 |
|---|---|
| Flight time | 0h 42m |
| Altitude | 21000 |
| Route | HESEL |
| Aircraft | PC12/L-SDFGRWY/S |
Departure
| Time | 2026-05-06 22:24 |
|---|---|
| Airport | Pensacola International Airport (KPNS) |
Arrival
| Time | 2026-05-06 23:06 |
|---|---|
| Airport | Auburn University Regional Airport (KAUO) |
| Time | Latitude | Longitude | Altitude | Speed | Heading |
|---|---|---|---|---|---|
| 2026-05-06 22:12 | 30.47273 | -87.17940 | 116 ft | 0 kts | 170° |
| 2026-05-06 22:19 | 30.47261 | -87.17942 | 115 ft | 4 kts | 209° |
| 2026-05-06 22:19 | 30.47240 | -87.17993 | 117 ft | 9 kts | 255° |
| 2026-05-06 22:19 | 30.47225 | -87.18071 | 117 ft | 10 kts | 278° |
| 2026-05-06 22:19 | 30.47269 | -87.18041 | 117 ft | 11 kts | 61° |
| 2026-05-06 22:20 | 30.47375 | -87.18046 | 116 ft | 20 kts | 346° |
| 2026-05-06 22:20 | 30.47523 | -87.18082 | 114 ft | 22 kts | 322° |
| 2026-05-06 22:20 | 30.47517 | -87.18243 | 113 ft | 20 kts | 257° |
| 2026-05-06 22:20 | 30.47489 | -87.18400 | 113 ft | 24 kts | 262° |
| 2026-05-06 22:21 | 30.47454 | -87.18599 | 111 ft | 25 kts | 256° |
| 2026-05-06 22:21 | 30.47420 | -87.18773 | 110 ft | 21 kts | 256° |
| 2026-05-06 22:21 | 30.47391 | -87.18937 | 106 ft | 21 kts | 259° |
| 2026-05-06 22:21 | 30.47486 | -87.19012 | 109 ft | 22 kts | 349° |
| 2026-05-06 22:22 | 30.47649 | -87.19054 | 115 ft | 26 kts | 346° |
| 2026-05-06 22:22 | 30.47830 | -87.19103 | 122 ft | 28 kts | 345° |
| 2026-05-06 22:22 | 30.48024 | -87.19153 | 125 ft | 30 kts | 347° |
| 2026-05-06 22:22 | 30.48221 | -87.19207 | 127 ft | 24 kts | 358° |
| 2026-05-06 22:23 | 30.48272 | -87.19079 | 128 ft | 12 kts | 101° |
| 2026-05-06 22:23 | 30.48135 | -87.19025 | 126 ft | 44 kts | 166° |
| 2026-05-06 22:23 | 30.47670 | -87.18903 | 191 ft | 84 kts | 168° |
| 2026-05-06 22:23 | 30.47113 | -87.18733 | 615 ft | 83 kts | 167° |
| 2026-05-06 22:24 | 30.46451 | -87.18533 | 749 ft | 115 kts | 167° |
| 2026-05-06 22:24 | 30.45583 | -87.18291 | 1119 ft | 133 kts | 172° |
| 2026-05-06 22:24 | 30.44789 | -87.18002 | 2040 ft | 117 kts | 148° |
| 2026-05-06 22:24 | 30.44370 | -87.17075 | 2468 ft | 152 kts | 97° |
| 2026-05-06 22:25 | 30.44867 | -87.15968 | 3103 ft | 163 kts | 43° |
| 2026-05-06 22:25 | 30.45796 | -87.15188 | 3650 ft | 167 kts | 35° |
| 2026-05-06 22:25 | 30.46751 | -87.14408 | 4201 ft | 169 kts | 36° |
| 2026-05-06 22:25 | 30.47707 | -87.13591 | 4756 ft | 172 kts | 35° |
| 2026-05-06 22:26 | 30.48660 | -87.12768 | 5260 ft | 174 kts | 34° |
| 2026-05-06 22:26 | 30.49638 | -87.11923 | 5813 ft | 176 kts | 34° |
| 2026-05-06 22:26 | 30.50625 | -87.11072 | 6351 ft | 178 kts | 34° |
| 2026-05-06 22:26 | 30.51630 | -87.10204 | 6860 ft | 181 kts | 34° |
| 2026-05-06 22:27 | 30.52641 | -87.09331 | 7399 ft | 182 kts | 34° |
| 2026-05-06 22:27 | 30.53659 | -87.08452 | 7929 ft | 183 kts | 33° |
| 2026-05-06 22:27 | 30.54685 | -87.07567 | 8476 ft | 184 kts | 33° |
| 2026-05-06 22:27 | 30.55719 | -87.06674 | 9009 ft | 186 kts | 33° |
| 2026-05-06 22:28 | 30.56760 | -87.05774 | 9545 ft | 187 kts | 33° |
| 2026-05-06 22:28 | 30.57810 | -87.04867 | 10052 ft | 189 kts | 33° |
| 2026-05-06 22:28 | 30.58866 | -87.03954 | 10536 ft | 190 kts | 32° |
| 2026-05-06 22:28 | 30.59931 | -87.03033 | 10995 ft | 191 kts | 32° |
| 2026-05-06 22:29 | 30.60995 | -87.02112 | 11494 ft | 191 kts | 31° |
| 2026-05-06 22:29 | 30.62051 | -87.01199 | 11988 ft | 192 kts | 31° |
| 2026-05-06 22:29 | 30.63125 | -87.00270 | 12495 ft | 193 kts | 30° |
| 2026-05-06 22:29 | 30.64206 | -86.99334 | 13005 ft | 194 kts | 30° |
| 2026-05-06 22:30 | 30.65290 | -86.98396 | 13521 ft | 195 kts | 29° |
| 2026-05-06 22:30 | 30.66379 | -86.97453 | 13999 ft | 196 kts | 28° |
| 2026-05-06 22:30 | 30.67473 | -86.96504 | 14437 ft | 196 kts | 28° |
| 2026-05-06 22:30 | 30.68575 | -86.95550 | 14885 ft | 198 kts | 27° |
| 2026-05-06 22:31 | 30.69678 | -86.94593 | 15302 ft | 199 kts | 27° |
| 2026-05-06 22:31 | 30.70791 | -86.93628 | 15713 ft | 200 kts | 27° |
| 2026-05-06 22:31 | 30.71908 | -86.92659 | 16107 ft | 201 kts | 26° |
| 2026-05-06 22:31 | 30.73034 | -86.91682 | 16510 ft | 202 kts | 26° |
| 2026-05-06 22:32 | 30.74164 | -86.90701 | 16917 ft | 203 kts | 25° |
| 2026-05-06 22:32 | 30.75301 | -86.89715 | 17298 ft | 204 kts | 25° |
| 2026-05-06 22:32 | 30.76443 | -86.88722 | 17706 ft | 205 kts | 25° |
| 2026-05-06 22:32 | 30.77577 | -86.87737 | 18099 ft | 207 kts | 25° |
| 2026-05-06 22:33 | 30.78744 | -86.86723 | 18471 ft | 207 kts | 24° |
| 2026-05-06 22:33 | 30.79903 | -86.85716 | 18802 ft | 209 kts | 24° |
| 2026-05-06 22:33 | 30.81070 | -86.84701 | 19131 ft | 210 kts | 24° |
| 2026-05-06 22:33 | 30.82226 | -86.83696 | 19453 ft | 211 kts | 24° |
| 2026-05-06 22:34 | 30.83406 | -86.82669 | 19791 ft | 212 kts | 24° |
| 2026-05-06 22:34 | 30.84587 | -86.81641 | 20126 ft | 213 kts | 23° |
| 2026-05-06 22:34 | 30.85777 | -86.80606 | 20459 ft | 214 kts | 23° |
| 2026-05-06 22:34 | 30.86972 | -86.79564 | 20790 ft | 215 kts | 23° |
| 2026-05-06 22:35 | 30.88173 | -86.78518 | 21135 ft | 216 kts | 23° |
| 2026-05-06 22:35 | 30.89364 | -86.77480 | 21465 ft | 217 kts | 22° |
| 2026-05-06 22:35 | 30.90579 | -86.76422 | 21778 ft | 218 kts | 22° |
| 2026-05-06 22:35 | 30.91799 | -86.75358 | 22108 ft | 219 kts | 22° |
| 2026-05-06 22:36 | 30.93025 | -86.74289 | 22444 ft | 220 kts | 22° |
| 2026-05-06 22:36 | 30.94266 | -86.73211 | 22586 ft | 230 kts | 22° |
| 2026-05-06 22:36 | 30.95633 | -86.72046 | 22126 ft | 264 kts | 25° |
| 2026-05-06 22:36 | 30.97174 | -86.70701 | 21637 ft | 289 kts | 27° |
| 2026-05-06 22:37 | 30.98823 | -86.69235 | 21151 ft | 305 kts | 28° |
| 2026-05-06 22:37 | 31.00526 | -86.67729 | 21016 ft | 305 kts | 28° |
| 2026-05-06 22:37 | 31.02204 | -86.66256 | 21011 ft | 299 kts | 27° |
| 2026-05-06 22:37 | 31.03857 | -86.64816 | 21006 ft | 293 kts | 27° |
| 2026-05-06 22:38 | 31.05462 | -86.63411 | 21009 ft | 284 kts | 27° |
| 2026-05-06 22:38 | 31.07028 | -86.62041 | 20999 ft | 278 kts | 26° |
| 2026-05-06 22:38 | 31.08563 | -86.60700 | 20997 ft | 274 kts | 26° |
| 2026-05-06 22:38 | 31.10080 | -86.59374 | 20996 ft | 271 kts | 26° |
| 2026-05-06 22:39 | 31.11589 | -86.58052 | 20990 ft | 269 kts | 26° |
| 2026-05-06 22:39 | 31.13063 | -86.56758 | 20989 ft | 268 kts | 26° |
| 2026-05-06 22:39 | 31.14550 | -86.55454 | 20987 ft | 266 kts | 26° |
| 2026-05-06 22:39 | 31.16027 | -86.54159 | 20989 ft | 265 kts | 26° |
| 2026-05-06 22:40 | 31.17503 | -86.52864 | 20987 ft | 265 kts | 26° |
| 2026-05-06 22:40 | 31.18977 | -86.51571 | 20986 ft | 266 kts | 26° |
| 2026-05-06 22:40 | 31.20461 | -86.50268 | 20984 ft | 267 kts | 27° |
| 2026-05-06 22:40 | 31.21948 | -86.48960 | 20984 ft | 267 kts | 27° |
| 2026-05-06 22:41 | 31.24928 | -86.46338 | 20983 ft | 268 kts | 27° |
| 2026-05-06 22:41 | 31.26397 | -86.45045 | 20983 ft | 268 kts | 27° |
| 2026-05-06 22:41 | 31.27891 | -86.43731 | 20978 ft | 268 kts | 27° |
| 2026-05-06 22:42 | 31.29379 | -86.42420 | 20980 ft | 268 kts | 27° |
| 2026-05-06 22:42 | 31.30868 | -86.41108 | 20981 ft | 268 kts | 27° |
| 2026-05-06 22:42 | 31.32361 | -86.39792 | 20975 ft | 268 kts | 27° |
| 2026-05-06 22:42 | 31.33851 | -86.38478 | 20976 ft | 269 kts | 27° |
| 2026-05-06 22:43 | 31.35348 | -86.37158 | 20976 ft | 269 kts | 27° |
| 2026-05-06 22:43 | 31.36843 | -86.35838 | 20978 ft | 269 kts | 27° |
| 2026-05-06 22:43 | 31.38345 | -86.34512 | 20978 ft | 270 kts | 27° |
| 2026-05-06 22:43 | 31.39830 | -86.33201 | 20974 ft | 271 kts | 27° |
| 2026-05-06 22:44 | 31.41339 | -86.31867 | 20975 ft | 271 kts | 27° |
| 2026-05-06 22:44 | 31.42842 | -86.30538 | 20976 ft | 270 kts | 27° |
| 2026-05-06 22:44 | 31.44343 | -86.29210 | 20975 ft | 270 kts | 27° |
| 2026-05-06 22:44 | 31.45844 | -86.27883 | 20975 ft | 270 kts | 27° |
| 2026-05-06 22:45 | 31.47322 | -86.26575 | 20977 ft | 269 kts | 27° |
| 2026-05-06 22:45 | 31.48823 | -86.25246 | 20974 ft | 270 kts | 27° |
| 2026-05-06 22:45 | 31.50325 | -86.23916 | 20977 ft | 271 kts | 28° |
| 2026-05-06 22:45 | 31.51831 | -86.22582 | 20976 ft | 272 kts | 28° |
| 2026-05-06 22:46 | 31.53340 | -86.21244 | 20974 ft | 272 kts | 28° |
| 2026-05-06 22:46 | 31.54848 | -86.19904 | 20974 ft | 271 kts | 28° |
| 2026-05-06 22:46 | 31.56352 | -86.18570 | 20978 ft | 271 kts | 28° |
| 2026-05-06 22:46 | 31.57851 | -86.17240 | 20978 ft | 270 kts | 28° |
| 2026-05-06 22:47 | 31.59346 | -86.15912 | 20987 ft | 269 kts | 28° |
| 2026-05-06 22:47 | 31.60843 | -86.14582 | 20995 ft | 269 kts | 28° |
| 2026-05-06 22:47 | 31.62335 | -86.13257 | 20991 ft | 268 kts | 28° |
| 2026-05-06 22:47 | 31.63823 | -86.11934 | 20996 ft | 268 kts | 28° |
| 2026-05-06 22:48 | 31.65308 | -86.10613 | 20992 ft | 268 kts | 28° |
| 2026-05-06 22:48 | 31.66793 | -86.09291 | 20996 ft | 267 kts | 28° |
| 2026-05-06 22:48 | 31.68277 | -86.07971 | 21000 ft | 267 kts | 28° |
| 2026-05-06 22:48 | 31.69740 | -86.06668 | 21006 ft | 267 kts | 28° |
| 2026-05-06 22:49 | 31.71223 | -86.05347 | 21010 ft | 267 kts | 28° |
| 2026-05-06 22:49 | 31.72703 | -86.04027 | 21010 ft | 266 kts | 28° |
| 2026-05-06 22:49 | 31.74179 | -86.02712 | 21011 ft | 267 kts | 27° |
| 2026-05-06 22:49 | 31.75661 | -86.01390 | 21011 ft | 268 kts | 28° |
| 2026-05-06 22:50 | 31.77147 | -86.00064 | 21013 ft | 269 kts | 28° |
| 2026-05-06 22:50 | 31.78638 | -85.98733 | 21017 ft | 269 kts | 28° |
| 2026-05-06 22:50 | 31.80135 | -85.97396 | 21012 ft | 270 kts | 28° |
| 2026-05-06 22:50 | 31.81636 | -85.96056 | 20845 ft | 276 kts | 28° |
| 2026-05-06 22:51 | 31.83186 | -85.94678 | 20375 ft | 288 kts | 28° |
| 2026-05-06 22:51 | 31.84802 | -85.93228 | 19843 ft | 295 kts | 29° |
| 2026-05-06 22:51 | 31.86448 | -85.91749 | 19262 ft | 300 kts | 30° |
| 2026-05-06 22:51 | 31.88111 | -85.90257 | 18693 ft | 299 kts | 30° |
| 2026-05-06 22:52 | 31.89763 | -85.88778 | 18109 ft | 298 kts | 30° |
| 2026-05-06 22:52 | 31.91410 | -85.87304 | 17461 ft | 296 kts | 30° |
| 2026-05-06 22:52 | 31.93050 | -85.85834 | 16813 ft | 295 kts | 30° |
| 2026-05-06 22:52 | 31.94655 | -85.84395 | 16215 ft | 293 kts | 30° |
| 2026-05-06 22:53 | 31.96296 | -85.82923 | 15598 ft | 292 kts | 30° |
| 2026-05-06 22:53 | 31.97905 | -85.81479 | 15004 ft | 291 kts | 31° |
| 2026-05-06 22:53 | 31.99493 | -85.80053 | 14428 ft | 290 kts | 31° |
| 2026-05-06 22:53 | 32.01094 | -85.78616 | 13850 ft | 289 kts | 31° |
| 2026-05-06 22:54 | 32.02692 | -85.77179 | 13218 ft | 289 kts | 31° |
| 2026-05-06 22:54 | 32.04286 | -85.75746 | 12588 ft | 288 kts | 32° |
| 2026-05-06 22:54 | 32.05877 | -85.74315 | 11966 ft | 287 kts | 32° |
| 2026-05-06 22:54 | 32.07462 | -85.72889 | 11363 ft | 287 kts | 32° |
| 2026-05-06 22:55 | 32.09046 | -85.71462 | 10766 ft | 286 kts | 32° |
| 2026-05-06 22:55 | 32.10630 | -85.70035 | 10180 ft | 286 kts | 33° |
| 2026-05-06 22:55 | 32.12210 | -85.68613 | 9575 ft | 286 kts | 33° |
| 2026-05-06 22:55 | 32.13792 | -85.67202 | 8947 ft | 285 kts | 34° |
| 2026-05-06 22:56 | 32.15372 | -85.65784 | 8327 ft | 284 kts | 34° |
| 2026-05-06 22:56 | 32.16940 | -85.64365 | 7724 ft | 284 kts | 35° |
| 2026-05-06 22:56 | 32.18504 | -85.62948 | 7127 ft | 284 kts | 36° |
| 2026-05-06 22:56 | 32.20052 | -85.61550 | 6553 ft | 284 kts | 36° |
| 2026-05-06 22:57 | 32.21608 | -85.60143 | 5941 ft | 276 kts | 37° |
| 2026-05-06 22:57 | 32.23098 | -85.58794 | 5322 ft | 264 kts | 38° |
| 2026-05-06 22:57 | 32.24530 | -85.57497 | 4719 ft | 254 kts | 39° |
| 2026-05-06 22:57 | 32.25913 | -85.56246 | 4092 ft | 246 kts | 39° |
| 2026-05-06 22:58 | 32.27245 | -85.55040 | 3482 ft | 237 kts | 39° |
| 2026-05-06 22:58 | 32.28536 | -85.53871 | 2995 ft | 225 kts | 39° |
| 2026-05-06 22:58 | 32.29695 | -85.52824 | 2978 ft | 195 kts | 39° |
| 2026-05-06 22:58 | 32.30716 | -85.51900 | 2975 ft | 182 kts | 40° |
| 2026-05-06 22:59 | 32.31734 | -85.50976 | 2977 ft | 187 kts | 39° |
| 2026-05-06 22:59 | 32.32773 | -85.50033 | 2985 ft | 190 kts | 40° |
| 2026-05-06 22:59 | 32.33832 | -85.49071 | 2988 ft | 194 kts | 40° |
| 2026-05-06 22:59 | 32.34913 | -85.48089 | 2992 ft | 198 kts | 40° |
| 2026-05-06 23:00 | 32.36010 | -85.47093 | 2987 ft | 200 kts | 40° |
| 2026-05-06 23:00 | 32.37109 | -85.46095 | 2986 ft | 203 kts | 40° |
| 2026-05-06 23:00 | 32.38231 | -85.45076 | 2991 ft | 203 kts | 39° |
| 2026-05-06 23:00 | 32.39435 | -85.44216 | 2999 ft | 204 kts | 18° |
| 2026-05-06 23:01 | 32.40803 | -85.44038 | 2989 ft | 187 kts | 360° |
| 2026-05-06 23:01 | 32.42029 | -85.44025 | 2982 ft | 168 kts | 1° |
| 2026-05-06 23:01 | 32.43155 | -85.44008 | 2985 ft | 156 kts | 360° |
| 2026-05-06 23:01 | 32.44209 | -85.43986 | 2986 ft | 147 kts | 1° |
| 2026-05-06 23:02 | 32.45205 | -85.43965 | 2984 ft | 139 kts | 0° |
| 2026-05-06 23:02 | 32.46138 | -85.43945 | 2990 ft | 132 kts | 0° |
| 2026-05-06 23:02 | 32.47063 | -85.43927 | 2999 ft | 135 kts | 0° |
| 2026-05-06 23:02 | 32.47999 | -85.43906 | 3002 ft | 134 kts | 1° |
| 2026-05-06 23:03 | 32.48600 | -85.43894 | 2991 ft | 125 kts | 2° |
| 2026-05-06 23:03 | 32.49704 | -85.43870 | 2835 ft | 118 kts | 0° |
| 2026-05-06 23:03 | 32.50532 | -85.43852 | 2689 ft | 120 kts | 1° |
| 2026-05-06 23:03 | 32.51377 | -85.43834 | 2540 ft | 125 kts | 0° |
| 2026-05-06 23:04 | 32.52268 | -85.43816 | 2371 ft | 129 kts | 0° |
| 2026-05-06 23:04 | 32.52869 | -85.43803 | 2260 ft | 127 kts | 0° |
| 2026-05-06 23:04 | 32.53762 | -85.43784 | 2091 ft | 130 kts | 1° |
| 2026-05-06 23:04 | 32.54655 | -85.43764 | 1924 ft | 129 kts | 358° |
| 2026-05-06 23:05 | 32.55543 | -85.43745 | 1760 ft | 126 kts | 358° |
| 2026-05-06 23:05 | 32.56427 | -85.43726 | 1594 ft | 127 kts | 360° |
| 2026-05-06 23:05 | 32.57312 | -85.43706 | 1375 ft | 129 kts | 0° |
| 2026-05-06 23:05 | 32.58196 | -85.43690 | 1206 ft | 124 kts | 0° |
| 2026-05-06 23:06 | 32.59037 | -85.43675 | 1080 ft | 119 kts | 0° |
| 2026-05-06 23:06 | 32.59851 | -85.43652 | 930 ft | 115 kts | 0° |
| 2026-05-06 23:06 | 32.60635 | -85.43632 | 764 ft | 107 kts | 0° |
| 2026-05-06 23:06 | 32.61215 | -85.43626 | 759 ft | 38 kts | 2° |
| 2026-05-06 23:07 | 32.61359 | -85.43597 | 763 ft | 15 kts | 79° |
| 2026-05-06 23:07 | 32.61358 | -85.43530 | 764 ft | 0 kts | 91° |
| 2026-05-06 23:07 | 32.61358 | -85.43527 | 764 ft | 7 kts | 92° |
| 2026-05-06 23:07 | 32.61282 | -85.43490 | 762 ft | 16 kts | 181° |
| 2026-05-06 23:08 | 32.61234 | -85.43393 | 750 ft | 21 kts | 89° |
| 2026-05-06 23:08 | 32.61277 | -85.43340 | 757 ft | 9 kts | 274° |
| 2026-05-06 23:08 | 32.61280 | -85.43392 | 752 ft | 0 kts | 272° |
| 2026-05-06 23:08 | 32.61280 | -85.43397 | 752 ft | 0 kts | 274° |